Time;durP1;ratioP1;P1;durP2;ratioP2;P2;SDS_P1;SDS_P2;PMS_P1;PMS_P2;Temp;Humidity;BMP_temperature;BMP_pressure;BME280_temperature;BME280_humidity;BME280_pressure;Samples;Min_cycle;Max_cycle;Signal;HPM_P1;HPM_P2
2022/08/01 00:01:33;;;;;;;0.93;0.93;;;;;;;22.26;100.00;95066.31;5071538;28;20540;-58
2022/08/01 00:04:02;;;;;;;1.77;1.17;;;;;;;22.16;100.00;95076.84;5075230;28;20524;-57
2022/08/01 00:06:30;;;;;;;1.83;1.10;;;;;;;21.86;100.00;95074.53;5074781;28;20457;-58
2022/08/01 00:08:58;;;;;;;0.93;0.93;;;;;;;21.91;100.00;95068.88;5074518;28;20460;-58
2022/08/01 00:11:27;;;;;;;1.30;1.30;;;;;;;21.39;100.00;95009.69;5074618;28;20896;-57
2022/08/01 00:13:55;;;;;;;0.83;0.83;;;;;;;22.22;100.00;95072.72;5074655;28;20973;-58
2022/08/01 00:16:24;;;;;;;0.50;0.40;;;;;;;22.80;100.00;95071.03;5074634;28;20475;-58
2022/08/01 00:18:54;;;;;;;0.50;0.30;;;;;;;22.84;100.00;95074.63;5074889;28;20460;-58
2022/08/01 00:21:23;;;;;;;0.40;0.30;;;;;;;23.13;100.00;95069.47;5074501;28;21055;-58
2022/08/01 00:23:51;;;;;;;0.83;0.30;;;;;;;23.28;100.00;95070.53;5074517;28;20456;-58
2022/08/01 00:26:20;;;;;;;1.07;0.43;;;;;;;23.30;100.00;95063.66;5074443;28;20563;-58
2022/08/01 00:28:48;;;;;;;0.60;0.60;;;;;;;22.98;100.00;95000.03;5074712;28;20433;-58
2022/08/01 00:31:16;;;;;;;0.50;0.40;;;;;;;23.40;100.00;95061.56;5074744;28;20499;-58
2022/08/01 00:33:48;;;;;;;0.80;0.80;;;;;;;23.49;100.00;95068.31;5074200;28;20957;-58
2022/08/01 00:36:17;;;;;;;0.40;0.30;;;;;;;23.48;100.00;95065.97;5074523;28;20444;-57
2022/08/01 00:38:46;;;;;;;0.70;0.50;;;;;;;23.12;100.00;95067.91;5074888;28;20425;-58
2022/08/01 00:41:14;;;;;;;0.60;0.53;;;;;;;22.79;100.00;95067.59;5074220;28;20519;-58
2022/08/01 00:43:43;;;;;;;0.90;0.50;;;;;;;22.60;100.00;95053.97;5074463;28;20445;-58
2022/08/01 00:46:11;;;;;;;2.60;1.97;;;;;;;22.57;100.00;95058.16;5074143;28;20425;-59
2022/08/01 00:48:40;;;;;;;1.37;1.27;;;;;;;22.37;100.00;95067.34;5074109;28;20525;-59
2022/08/01 00:51:09;;;;;;;0.50;0.30;;;;;;;22.57;100.00;95065.47;5074002;28;20532;-59
2022/08/01 00:53:39;;;;;;;0.73;0.70;;;;;;;22.04;100.00;95070.38;5074003;28;20433;-59
2022/08/01 00:56:20;;;;;;;1.60;0.57;;;;;;;21.76;100.00;95021.06;5074221;28;20443;-59
2022/08/01 00:58:49;;;;;;;0.93;0.93;;;;;;;21.73;100.00;95075.69;5073923;28;20476;-59
2022/08/01 01:01:17;;;;;;;1.10;0.87;;;;;;;21.71;100.00;95075.25;5073781;28;20436;-59
2022/08/01 01:03:46;;;;;;;0.60;0.60;;;;;;;21.82;100.00;95068.25;5073793;28;20483;-59
2022/08/01 01:06:45;;;;;;;2.57;0.60;;;;;;;22.38;100.00;95068.91;5073687;28;20441;-59
2022/08/01 01:09:28;;;;;;;0.70;0.40;;;;;;;22.65;100.00;95072.66;5073282;28;20449;-59
2022/08/01 01:12:08;;;;;;;0.40;0.30;;;;;;;22.47;100.00;95050.59;5073653;28;20440;-59
2022/08/01 01:14:46;;;;;;;1.33;0.50;;;;;;;21.90;100.00;95069.25;5072773;28;21042;-59
2022/08/01 01:17:17;;;;;;;0.77;0.77;;;;;;;21.85;100.00;95061.38;5073726;28;20493;-59
2022/08/01 01:20:09;;;;;;;0.60;0.50;;;;;;;21.72;100.00;95066.06;5072646;28;20447;-59
2022/08/01 01:22:50;;;;;;;0.63;0.63;;;;;;;21.41;100.00;95064.06;5073350;28;20566;-59
2022/08/01 01:25:43;;;;;;;1.53;1.27;;;;;;;21.53;100.00;95066.69;5073701;28;20457;-59
2022/08/01 01:28:21;;;;;;;1.17;1.00;;;;;;;21.15;100.00;95061.00;5073497;28;20437;-59
2022/08/01 01:30:55;;;;;;;1.80;0.97;;;;;;;20.98;100.00;95057.75;5073534;28;20889;-60
2022/08/01 01:33:28;;;;;;;0.90;0.60;;;;;;;21.10;100.00;95049.69;5073009;28;20479;-59
2022/08/01 01:36:01;;;;;;;1.30;1.20;;;;;;;20.80;100.00;95049.94;5072590;28;20526;-59
2022/08/01 01:38:33;;;;;;;1.13;1.03;;;;;;;20.77;100.00;95055.25;5072987;28;20425;-59
2022/08/01 01:41:04;;;;;;;1.00;0.70;;;;;;;20.61;100.00;95049.75;5073043;28;20413;-60
2022/08/01 01:43:34;;;;;;;0.57;0.50;;;;;;;20.50;100.00;95050.53;5073201;28;20513;-60
2022/08/01 01:46:05;;;;;;;0.70;0.40;;;;;;;20.65;100.00;95056.03;5073023;28;20933;-60
2022/08/01 01:48:36;;;;;;;0.73;0.60;;;;;;;20.80;100.00;95049.16;5073173;28;20511;-60
2022/08/01 01:51:06;;;;;;;1.57;1.03;;;;;;;20.79;100.00;95058.38;5073152;28;20461;-60
2022/08/01 01:53:36;;;;;;;0.57;0.57;;;;;;;20.47;100.00;95045.81;5072759;28;20512;-60
2022/08/01 01:56:05;;;;;;;0.83;0.83;;;;;;;20.32;100.00;95049.19;5072446;28;20895;-60
2022/08/01 01:58:36;;;;;;;0.70;0.60;;;;;;;20.11;100.00;95017.78;5072425;28;20965;-60
2022/08/01 02:01:08;;;;;;;1.13;1.00;;;;;;;20.18;100.00;95053.00;5072623;28;20523;-60
2022/08/01 02:03:43;;;;;;;1.00;1.00;;;;;;;20.16;100.00;95052.53;5072864;28;20508;-60
2022/08/01 02:06:16;;;;;;;1.03;1.03;;;;;;;20.18;100.00;95054.91;5072558;28;20516;-60
2022/08/01 02:08:46;;;;;;;1.17;1.10;;;;;;;20.57;100.00;95046.16;5072773;28;20856;-60
2022/08/01 02:11:21;;;;;;;1.37;1.27;;;;;;;20.43;100.00;95048.44;5072468;28;20508;-60
2022/08/01 02:13:55;;;;;;;0.97;0.83;;;;;;;20.42;100.00;95049.53;5072360;28;20861;-60
2022/08/01 02:16:29;;;;;;;0.93;0.93;;;;;;;20.59;100.00;95048.53;5072004;28;20543;-60
2022/08/01 02:18:57;;;;;;;0.77;0.77;;;;;;;21.09;100.00;95053.50;5072564;28;20444;-60
2022/08/01 02:21:29;;;;;;;0.70;0.40;;;;;;;21.42;100.00;95052.16;5072321;28;20457;-60
2022/08/01 02:24:04;;;;;;;0.80;0.67;;;;;;;21.55;100.00;95044.78;5072303;28;20461;-60
2022/08/01 02:26:35;;;;;;;0.50;0.40;;;;;;;21.79;100.00;95051.94;5071918;28;20482;-60
2022/08/01 02:29:08;;;;;;;0.50;0.50;;;;;;;21.67;100.00;95044.72;5072119;28;20525;-60
2022/08/01 02:31:44;;;;;;;0.70;0.40;;;;;;;21.38;100.00;95053.16;5072436;28;20554;-61
2022/08/01 02:34:16;;;;;;;1.40;1.37;;;;;;;20.73;100.00;95051.63;5072155;28;20463;-61
2022/08/01 02:36:46;;;;;;;0.70;0.70;;;;;;;20.73;100.00;95065.09;5072271;28;20509;-61
2022/08/01 02:39:19;;;;;;;2.60;0.60;;;;;;;20.69;100.00;95061.53;5072111;28;20512;-60
2022/08/01 02:41:51;;;;;;;0.70;0.70;;;;;;;20.97;100.00;95056.22;5072334;28;20461;-61
2022/08/01 02:44:24;;;;;;;0.50;0.40;;;;;;;21.46;100.00;95050.31;5072287;28;20479;-61
2022/08/01 02:47:01;;;;;;;0.60;0.50;;;;;;;21.35;100.00;95056.56;5071728;28;20461;-61
2022/08/01 02:49:33;;;;;;;0.90;0.90;;;;;;;21.25;100.00;95008.53;5071724;28;20479;-61
2022/08/01 02:52:06;;;;;;;1.10;0.57;;;;;;;21.67;100.00;95055.50;5071645;28;20437;-61
2022/08/01 02:54:36;;;;;;;0.40;0.30;;;;;;;21.91;100.00;95063.47;5071672;28;20937;-60
2022/08/01 02:57:07;;;;;;;0.60;0.40;;;;;;;21.88;100.00;95068.81;5071739;28;21028;-60
2022/08/01 02:59:39;;;;;;;0.50;0.33;;;;;;;21.94;100.00;95070.09;5071573;28;20472;-60
2022/08/01 03:02:12;;;;;;;0.40;0.30;;;;;;;21.91;100.00;95060.00;5071040;28;20521;-60
2022/08/01 03:04:42;;;;;;;0.40;0.30;;;;;;;21.99;100.00;95075.25;5071608;28;20705;-60
2022/08/01 03:07:12;;;;;;;0.60;0.37;;;;;;;21.96;100.00;95068.63;5071505;28;20464;-60
2022/08/01 03:09:43;;;;;;;1.00;0.80;;;;;;;21.87;100.00;95068.03;5071558;28;20961;-60
2022/08/01 03:12:15;;;;;;;0.53;0.50;;;;;;;21.91;100.00;95087.78;5071388;28;20477;-60
2022/08/01 03:14:45;;;;;;;0.63;0.30;;;;;;;21.84;100.00;95081.38;5071351;28;20433;-61
2022/08/01 03:17:18;;;;;;;0.47;0.40;;;;;;;21.76;100.00;95082.31;5071277;28;20572;-59
2022/08/01 03:19:49;;;;;;;0.93;0.50;;;;;;;20.99;100.00;95062.03;5071587;28;20469;-60
2022/08/01 03:22:21;;;;;;;0.50;0.43;;;;;;;20.96;100.00;95035.75;5071617;28;20508;-59
2022/08/01 03:24:52;;;;;;;0.60;0.43;;;;;;;21.39;100.00;95079.78;5071288;28;20516;-60
2022/08/01 03:27:22;;;;;;;0.50;0.40;;;;;;;21.51;100.00;95084.34;5071522;28;20433;-60
2022/08/01 03:29:52;;;;;;;0.80;0.60;;;;;;;21.39;100.00;95079.78;5070941;28;20752;-60
2022/08/01 03:32:25;;;;;;;0.60;0.60;;;;;;;21.35;100.00;95086.97;5070950;28;20425;-60
2022/08/01 03:34:54;;;;;;;3.90;0.50;;;;;;;20.89;100.00;95082.16;5070834;28;20967;-60
2022/08/01 03:37:26;;;;;;;0.63;0.60;;;;;;;20.08;100.00;95082.25;5072637;28;21012;-60
2022/08/01 03:39:59;;;;;;;1.53;0.70;;;;;;;20.71;100.00;95089.69;5074683;28;20937;-60
2022/08/01 03:42:33;;;;;;;0.50;0.40;;;;;;;20.76;100.00;95089.47;5074642;28;20930;-60
2022/08/01 03:45:09;;;;;;;0.70;0.63;;;;;;;20.75;100.00;95089.78;5074848;28;20463;-60
2022/08/01 03:47:45;;;;;;;0.40;0.30;;;;;;;21.12;100.00;95102.13;5074941;28;20421;-60
2022/08/01 03:50:17;;;;;;;1.97;0.40;;;;;;;21.31;100.00;95090.72;5075136;28;20913;-61
2022/08/01 03:52:47;;;;;;;0.40;0.30;;;;;;;21.27;100.00;95050.19;5075123;28;20498;-61
2022/08/01 03:55:17;;;;;;;0.40;0.30;;;;;;;21.55;100.00;95095.25;5074661;28;20465;-60
2022/08/01 03:57:47;;;;;;;0.43;0.30;;;;;;;21.58;100.00;95097.25;5074705;28;20480;-60
2022/08/01 04:00:18;;;;;;;0.43;0.30;;;;;;;21.65;100.00;95110.94;5074721;28;20928;-60
2022/08/01 04:02:48;;;;;;;0.50;0.30;;;;;;;21.73;100.00;95101.91;5075134;28;20439;-60
2022/08/01 04:05:17;;;;;;;0.93;0.90;;;;;;;21.82;100.00;95102.53;5074537;28;20457;-60
2022/08/01 04:07:50;;;;;;;0.47;0.30;;;;;;;21.85;100.00;95097.25;5074574;28;20456;-60
2022/08/01 04:10:18;;;;;;;0.77;0.57;;;;;;;21.93;100.00;95095.53;5074868;28;20860;-61
2022/08/01 04:12:47;;;;;;;0.93;0.70;;;;;;;21.93;100.00;95095.53;5074708;28;20451;-60
2022/08/01 04:15:15;;;;;;;0.87;0.53;;;;;;;21.90;100.00;95107.03;5074587;28;20433;-59
2022/08/01 04:17:44;;;;;;;0.50;0.40;;;;;;;21.02;100.00;95019.03;5074242;28;20915;-59
2022/08/01 04:20:15;;;;;;;0.50;0.30;;;;;;;21.85;100.00;95102.66;5074589;28;20429;-59
2022/08/01 04:22:44;;;;;;;0.40;0.30;;;;;;;22.03;100.00;95111.22;5073943;28;20433;-60
2022/08/01 04:25:18;;;;;;;0.97;0.37;;;;;;;21.74;100.00;95054.91;5074049;28;20475;-59
2022/08/01 04:27:50;;;;;;;0.50;0.27;;;;;;;22.13;100.00;95106.09;5074407;28;20427;-59
2022/08/01 04:30:24;;;;;;;0.50;0.30;;;;;;;22.10;97.95;95111.41;5074279;28;20455;-59
2022/08/01 04:32:55;;;;;;;0.40;0.30;;;;;;;21.94;100.00;95121.38;5073572;28;21046;-59
2022/08/01 04:35:27;;;;;;;0.40;0.30;;;;;;;22.18;100.00;95118.56;5074155;28;20487;-52
2022/08/01 04:38:22;;;;;;;0.50;0.47;;;;;;;22.38;100.00;95120.22;5072755;28;20427;-52
2022/08/01 04:40:53;;;;;;;0.60;0.60;;;;;;;22.61;100.00;95121.19;5074160;28;20437;-53
2022/08/01 04:43:22;;;;;;;0.60;0.40;;;;;;;22.70;100.00;95112.91;5074164;28;20453;-53
2022/08/01 04:45:52;;;;;;;0.93;0.70;;;;;;;22.74;100.00;95108.38;5072881;28;20875;-52
2022/08/01 04:48:22;;;;;;;0.50;0.30;;;;;;;22.90;100.00;95121.84;5073674;28;20516;-56
2022/08/01 04:50:52;;;;;;;1.90;0.47;;;;;;;23.00;100.00;95115.91;5073834;28;20856;-53
2022/08/01 04:53:22;;;;;;;0.50;0.40;;;;;;;22.74;100.00;95117.25;5073730;28;20476;-57
2022/08/01 04:55:51;;;;;;;1.10;1.10;;;;;;;22.65;100.00;95119.38;5072836;28;20429;-56
2022/08/01 04:58:20;;;;;;;2.43;0.80;;;;;;;22.66;100.00;95110.13;5073583;28;20505;-56
2022/08/01 05:00:49;;;;;;;1.77;0.90;;;;;;;22.40;100.00;95112.56;5073396;28;20477;-57
2022/08/01 05:03:17;;;;;;;1.93;0.70;;;;;;;21.40;100.00;95005.09;5073485;28;20471;-57
2022/08/01 05:05:46;;;;;;;0.50;0.40;;;;;;;22.39;100.00;95112.91;5073325;28;20960;-57
2022/08/01 05:08:16;;;;;;;0.73;0.73;;;;;;;22.11;100.00;95112.97;5073046;28;20425;-57
2022/08/01 05:10:44;;;;;;;0.80;0.80;;;;;;;22.14;100.00;95112.25;5073163;28;20469;-55
2022/08/01 05:13:13;;;;;;;0.80;0.80;;;;;;;22.65;100.00;95116.66;5073311;28;20425;-58
2022/08/01 05:15:41;;;;;;;1.33;0.80;;;;;;;22.92;100.00;95097.97;5073184;28;20481;-58
2022/08/01 05:18:09;;;;;;;0.70;0.60;;;;;;;23.22;100.00;95099.81;5072688;28;21024;-57
2022/08/01 05:20:38;;;;;;;1.03;1.03;;;;;;;23.62;100.00;95104.91;5073420;28;20450;-59
2022/08/01 05:23:06;;;;;;;0.50;0.50;;;;;;;23.73;100.00;95102.41;5073300;28;20453;-57
2022/08/01 05:25:49;;;;;;;0.50;0.30;;;;;;;23.85;100.00;95097.63;5073126;28;20429;-57
2022/08/01 05:28:25;;;;;;;0.40;0.30;;;;;;;23.85;90.90;95099.53;5073015;28;20424;-57
2022/08/01 05:30:54;;;;;;;1.00;0.80;;;;;;;23.93;93.78;95093.88;5072999;28;20488;-58
2022/08/01 05:33:23;;;;;;;0.40;0.20;;;;;;;23.97;80.47;95093.97;5071834;28;20452;-57
2022/08/01 05:35:51;;;;;;;0.50;0.50;;;;;;;23.85;95.58;95094.91;5073180;28;20855;-56
2022/08/01 05:38:20;;;;;;;0.50;0.47;;;;;;;23.87;87.03;95084.50;5073131;28;20603;-56
2022/08/01 05:40:50;;;;;;;0.53;0.30;;;;;;;24.25;88.83;95093.72;5072726;28;20487;-56
2022/08/01 05:43:18;;;;;;;0.67;0.50;;;;;;;23.81;70.12;95028.31;5072689;28;20425;-57
2022/08/01 05:45:47;;;;;;;0.50;0.40;;;;;;;24.41;80.81;95092.44;5072118;28;20520;-56
2022/08/01 05:48:16;;;;;;;0.70;0.60;;;;;;;24.02;81.17;95091.75;5072818;28;20448;-56
2022/08/01 05:50:44;;;;;;;0.53;0.50;;;;;;;24.10;70.05;95086.47;5072584;28;20429;-53
2022/08/01 05:53:12;;;;;;;0.87;0.80;;;;;;;23.84;71.80;95073.59;5072457;28;20472;-55
2022/08/01 05:55:41;;;;;;;0.50;0.40;;;;;;;24.18;69.42;95083.56;5072785;28;20508;-53
2022/08/01 05:58:11;;;;;;;0.40;0.30;;;;;;;24.27;71.02;95084.09;5071721;28;20477;-66
2022/08/01 06:00:39;;;;;;;0.40;0.40;;;;;;;24.54;76.57;95079.50;5071326;28;20881;-66
2022/08/01 06:03:08;;;;;;;0.53;0.53;;;;;;;24.48;61.12;95080.94;5072303;28;20520;-67
2022/08/01 06:05:36;;;;;;;0.70;0.50;;;;;;;24.55;64.89;95076.41;5071720;28;20449;-68
2022/08/01 06:08:05;;;;;;;2.77;0.60;;;;;;;25.09;70.93;95075.31;5072126;28;20457;-68
2022/08/01 06:10:33;;;;;;;4.83;0.77;;;;;;;25.11;70.44;95033.09;5071933;28;20457;-69
2022/08/01 06:13:03;;;;;;;0.60;0.40;;;;;;;25.49;61.80;95080.09;5072088;28;20999;-68
2022/08/01 06:15:33;;;;;;;0.40;0.40;;;;;;;25.70;61.52;95088.50;5072228;28;20468;-70
2022/08/01 06:18:02;;;;;;;0.40;0.30;;;;;;;25.70;63.39;95074.94;5071625;28;20513;-69
2022/08/01 06:20:30;;;;;;;0.93;0.40;;;;;;;25.84;61.33;95075.09;5071007;28;20487;-70
2022/08/01 06:22:59;;;;;;;0.90;0.90;;;;;;;25.83;68.61;95070.81;5072249;28;20460;-71
2022/08/01 06:25:29;;;;;;;1.13;0.90;;;;;;;24.94;64.57;95044.50;5071300;28;20990;-71
2022/08/01 06:27:58;;;;;;;0.90;0.90;;;;;;;25.52;64.72;95069.31;5072011;28;20441;-72
2022/08/01 06:30:27;;;;;;;0.73;0.73;;;;;;;25.40;60.76;95074.91;5071512;28;20429;-73
2022/08/01 06:32:58;;;;;;;0.87;0.87;;;;;;;25.49;63.92;95063.81;5072202;28;20501;-72
2022/08/01 06:35:28;;;;;;;0.50;0.30;;;;;;;26.26;61.41;95061.19;5072039;28;20430;-71
2022/08/01 06:37:56;;;;;;;0.70;0.70;;;;;;;26.23;56.12;95059.22;5071867;28;20465;-73
2022/08/01 06:40:25;;;;;;;0.60;0.40;;;;;;;26.52;50.32;95054.78;5072116;28;20836;-70
2022/08/01 06:42:53;;;;;;;0.50;0.50;;;;;;;26.66;48.04;95052.19;5071553;28;20516;-71
2022/08/01 06:45:22;;;;;;;0.70;0.70;;;;;;;26.99;52.26;95060.19;5071921;28;20516;-68
2022/08/01 06:47:50;;;;;;;3.57;0.70;;;;;;;27.47;49.20;95050.75;5071576;28;20473;-68
2022/08/01 06:50:20;;;;;;;0.50;0.37;;;;;;;28.02;44.40;95047.81;5072256;28;20452;-66
2022/08/01 06:52:49;;;;;;;0.60;0.50;;;;;;;27.84;41.74;95046.97;5071834;28;20507;-67
2022/08/01 06:55:17;;;;;;;0.67;0.67;;;;;;;27.86;45.44;95006.50;5071957;28;20425;-66
2022/08/01 06:57:51;;;;;;;0.50;0.40;;;;;;;27.86;43.86;95031.00;5071077;28;20918;-68
2022/08/01 07:00:22;;;;;;;8.33;0.90;;;;;;;27.85;46.18;95043.09;5071774;28;20520;-69
2022/08/01 07:02:50;;;;;;;0.40;0.33;;;;;;;28.38;45.34;95040.47;5070925;28;20505;-68
2022/08/01 07:05:21;;;;;;;1.13;0.40;;;;;;;28.30;42.52;95037.75;5072044;28;20512;-68
2022/08/01 07:07:50;;;;;;;0.70;0.50;;;;;;;28.26;44.93;95041.59;5071457;28;20498;-69
2022/08/01 07:10:18;;;;;;;0.77;0.70;;;;;;;27.34;47.02;95038.63;5071682;28;20429;-69
2022/08/01 07:12:47;;;;;;;1.10;1.10;;;;;;;27.48;46.99;95033.25;5074057;28;20429;-70
2022/08/01 07:15:15;;;;;;;0.70;0.70;;;;;;;27.52;41.67;95025.09;5075514;28;20502;-69
2022/08/01 07:17:44;;;;;;;0.70;0.57;;;;;;;27.74;44.91;94953.19;5075496;28;21040;-61
2022/08/01 07:20:13;;;;;;;0.70;0.63;;;;;;;27.97;41.69;95018.97;5075984;28;20524;-61
2022/08/01 07:22:46;;;;;;;2.20;0.60;;;;;;;27.36;40.88;95019.94;5075843;28;20448;-62
2022/08/01 07:25:15;;;;;;;0.60;0.30;;;;;;;27.29;43.50;94964.72;5075561;28;20451;-62
2022/08/01 07:27:44;;;;;;;0.40;0.40;;;;;;;27.45;41.00;94985.00;5075922;28;20506;-62
2022/08/01 07:30:13;;;;;;;0.50;0.40;;;;;;;28.24;42.12;95017.47;5075271;28;20433;-60
2022/08/01 07:32:42;;;;;;;0.53;0.53;;;;;;;27.93;39.50;95020.16;5075011;28;20504;-59
2022/08/01 07:35:10;;;;;;;0.83;0.73;;;;;;;27.61;39.57;94958.22;5075615;28;20824;-61
2022/08/01 07:37:39;;;;;;;0.57;0.57;;;;;;;28.46;40.86;94992.94;5075230;28;21060;-61
2022/08/01 07:40:19;;;;;;;1.90;0.77;;;;;;;28.41;38.13;95013.22;5075069;28;20413;-61
2022/08/01 07:42:48;;;;;;;0.60;0.50;;;;;;;28.13;38.83;95002.28;5075299;28;20502;-61
2022/08/01 07:45:16;;;;;;;0.77;0.70;;;;;;;28.02;39.18;95009.66;5074864;28;20460;-62
2022/08/01 07:47:46;;;;;;;0.73;0.73;;;;;;;29.03;39.34;95007.28;5074894;28;20433;-61
2022/08/01 07:50:14;;;;;;;0.40;0.30;;;;;;;28.92;38.14;95010.81;5074078;28;20536;-61
2022/08/01 07:52:43;;;;;;;1.00;0.90;;;;;;;28.88;37.28;94996.41;5074559;28;20461;-62
2022/08/01 07:55:12;;;;;;;0.80;0.80;;;;;;;28.80;38.83;94992.13;5075074;28;20878;-63
2022/08/01 07:57:44;;;;;;;0.70;0.70;;;;;;;29.06;39.32;95001.81;5074904;28;20425;-63
2022/08/01 08:00:14;;;;;;;0.70;0.70;;;;;;;29.33;42.11;94977.56;5074856;28;20426;-61
2022/08/01 08:02:43;;;;;;;0.50;0.47;;;;;;;29.02;44.97;94943.72;5074900;28;20430;-61
2022/08/01 08:05:12;;;;;;;0.83;0.53;;;;;;;29.53;38.57;94954.84;5074401;28;20517;-61
2022/08/01 08:07:40;;;;;;;0.70;0.70;;;;;;;29.75;38.10;94982.81;5074420;28;20460;-62
2022/08/01 08:10:10;;;;;;;0.57;0.50;;;;;;;30.03;38.57;94987.34;5073993;28;20465;-62
2022/08/01 08:12:39;;;;;;;0.50;0.47;;;;;;;31.26;34.48;94990.91;5074534;28;20498;-62
2022/08/01 08:15:09;;;;;;;0.97;0.77;;;;;;;30.29;34.98;94988.69;5074366;28;20504;-63
2022/08/01 08:17:38;;;;;;;0.50;0.30;;;;;;;31.18;35.30;94979.28;5074097;28;20628;-63
2022/08/01 08:20:08;;;;;;;0.50;0.50;;;;;;;32.05;34.23;94975.81;5074239;28;20520;-63
2022/08/01 08:22:37;;;;;;;0.70;0.60;;;;;;;30.96;33.97;94983.44;5073644;28;20435;-64
2022/08/01 08:25:07;;;;;;;1.00;0.90;;;;;;;31.35;34.14;94953.63;5074061;28;20464;-63
2022/08/01 08:27:36;;;;;;;0.77;0.77;;;;;;;31.00;33.46;94975.19;5073862;28;21172;-64
2022/08/01 08:30:07;;;;;;;0.50;0.50;;;;;;;31.46;33.68;94969.97;5074594;28;20462;-65
2022/08/01 08:32:37;;;;;;;2.70;0.80;;;;;;;32.01;33.68;94961.38;5074202;28;20445;-57
2022/08/01 08:35:07;;;;;;;0.57;0.40;;;;;;;31.98;37.09;94956.69;5073998;28;20455;-57
2022/08/01 08:37:39;;;;;;;0.60;0.60;;;;;;;32.01;33.58;94904.56;5074442;28;20456;-56
2022/08/01 08:40:16;;;;;;;1.33;0.63;;;;;;;31.77;33.96;94962.50;5074471;28;20515;-56
2022/08/01 08:42:47;;;;;;;0.77;0.77;;;;;;;32.51;32.48;94906.47;5074471;28;20510;-56
2022/08/01 08:45:15;;;;;;;0.40;0.30;;;;;;;33.26;31.78;94964.31;5074452;28;20516;-56
2022/08/01 08:47:48;;;;;;;0.60;0.57;;;;;;;32.84;32.39;94959.63;5074325;28;20438;-56
2022/08/01 08:50:17;;;;;;;0.60;0.60;;;;;;;32.87;33.38;94953.28;5073110;28;20487;-56
2022/08/01 08:52:48;;;;;;;0.53;0.50;;;;;;;32.75;35.09;94959.38;5073765;28;20493;-55
2022/08/01 08:55:17;;;;;;;4.93;0.60;;;;;;;33.20;33.52;94925.56;5073932;28;20524;-55
2022/08/01 08:57:47;;;;;;;0.60;0.60;;;;;;;33.44;33.76;94955.69;5074144;28;20432;-56
2022/08/01 09:00:17;;;;;;;0.50;0.43;;;;;;;33.01;32.58;94964.00;5073602;28;20529;-65
2022/08/01 09:02:49;;;;;;;0.40;0.30;;;;;;;33.59;31.88;94962.47;5073503;28;20669;-56
2022/08/01 09:05:25;;;;;;;0.50;0.50;;;;;;;32.37;36.50;94965.09;5073951;28;20428;-55
2022/08/01 09:08:08;;;;;;;0.40;0.40;;;;;;;32.75;35.92;94951.16;5073689;28;20981;-55
2022/08/01 09:10:36;;;;;;;0.37;0.30;;;;;;;33.60;31.47;94950.28;5073477;28;20475;-54
2022/08/01 09:13:10;;;;;;;1.33;0.70;;;;;;;33.85;32.43;94945.75;5073446;28;20568;-55
2022/08/01 09:15:44;;;;;;;0.50;0.50;;;;;;;34.28;30.43;94942.06;5073727;28;20461;-54
2022/08/01 09:18:33;;;;;;;0.60;0.60;;;;;;;33.93;30.21;94940.13;5073270;28;20547;-55
2022/08/01 09:21:17;;;;;;;0.80;0.80;;;;;;;34.78;28.80;94939.59;5073668;28;20419;-55
2022/08/01 09:23:49;;;;;;;0.70;0.57;;;;;;;34.36;29.93;94863.59;5073279;28;20929;-56
2022/08/01 09:26:30;;;;;;;0.40;0.30;;;;;;;35.11;28.31;94890.72;5073264;28;20425;-55
2022/08/01 09:28:59;;;;;;;0.70;0.70;;;;;;;34.39;28.71;94932.31;5073315;28;20473;-55
2022/08/01 09:31:29;;;;;;;0.83;0.83;;;;;;;33.85;29.46;94885.28;5073173;28;20425;-54
2022/08/01 09:34:09;;;;;;;0.60;0.60;;;;;;;35.02;28.04;94929.88;5072553;28;20420;-54
2022/08/01 09:36:55;;;;;;;0.40;0.30;;;;;;;33.95;29.12;94828.50;5072847;28;20563;-54
2022/08/01 09:39:25;;;;;;;0.50;0.50;;;;;;;34.43;29.36;94907.47;5072841;28;20976;-54
2022/08/01 09:41:55;;;;;;;0.40;0.30;;;;;;;35.10;26.85;94856.09;5072823;28;20433;-54
2022/08/01 09:44:39;;;;;;;0.50;0.30;;;;;;;35.82;27.37;94916.19;5073027;28;20503;-54
2022/08/01 09:47:12;;;;;;;0.60;0.60;;;;;;;35.00;28.03;94915.78;5071844;28;20519;-54
2022/08/01 09:49:45;;;;;;;0.70;0.70;;;;;;;34.38;29.32;94905.25;5072526;28;20890;-54
2022/08/01 09:52:20;;;;;;;0.77;0.77;;;;;;;34.30;28.58;94907.41;5072930;28;20423;-54
2022/08/01 09:54:55;;;;;;;0.60;0.50;;;;;;;34.12;29.00;94909.03;5072565;28;20500;-54
2022/08/01 09:57:24;;;;;;;0.50;0.50;;;;;;;35.21;28.56;94895.16;5072605;28;20490;-54
2022/08/01 09:59:55;;;;;;;0.70;0.70;;;;;;;34.32;28.37;94904.22;5072562;28;20865;-54
2022/08/01 10:02:30;;;;;;;1.93;0.40;;;;;;;34.70;29.16;94893.41;5072851;28;20428;-54
2022/08/01 10:05:01;;;;;;;0.50;0.50;;;;;;;34.75;28.77;94884.63;5072522;28;20520;-56
2022/08/01 10:07:35;;;;;;;0.40;0.40;;;;;;;35.47;28.23;94888.44;5072301;28;20519;-59
2022/08/01 10:10:12;;;;;;;0.60;0.50;;;;;;;35.98;27.69;94880.97;5072238;28;20662;-59
2022/08/01 10:12:42;;;;;;;0.50;0.50;;;;;;;36.88;26.66;94877.56;5072233;28;20195;-58
2022/08/01 10:15:15;;;;;;;0.40;0.30;;;;;;;36.97;27.17;94885.94;5072305;28;20435;-59
2022/08/01 10:17:55;;;;;;;0.67;0.67;;;;;;;35.55;28.84;94880.75;5072124;28;20232;-53
2022/08/01 10:20:28;;;;;;;0.63;0.63;;;;;;;35.61;29.33;94879.78;5072184;28;20296;-54
2022/08/01 10:23:02;;;;;;;0.60;0.60;;;;;;;35.58;29.32;94877.91;5072289;28;20190;-54
2022/08/01 10:25:38;;;;;;;0.50;0.50;;;;;;;35.62;28.46;94877.81;5072158;28;20226;-54
2022/08/01 10:28:16;;;;;;;0.40;0.40;;;;;;;36.10;28.83;94868.41;5072103;28;20591;-54
2022/08/01 10:30:51;;;;;;;0.40;0.30;;;;;;;36.55;26.25;94870.84;5072355;28;20186;-54
2022/08/01 10:33:23;;;;;;;0.53;0.53;;;;;;;36.44;28.08;94876.72;5071892;28;20190;-54
2022/08/01 10:36:13;;;;;;;0.50;0.40;;;;;;;35.90;26.32;94827.25;5071722;28;20194;-54
2022/08/01 10:38:44;;;;;;;0.40;0.40;;;;;;;35.77;25.74;94864.34;5071947;28;20182;-56
2022/08/01 10:41:15;;;;;;;0.80;0.80;;;;;;;35.80;25.86;94875.25;5071746;28;20237;-54
2022/08/01 10:43:44;;;;;;;0.50;0.50;;;;;;;35.79;25.30;94864.66;5072106;28;20265;-54
2022/08/01 10:46:14;;;;;;;0.40;0.40;;;;;;;36.46;27.16;94854.19;5071262;28;20678;-54
2022/08/01 10:48:50;;;;;;;0.53;0.53;;;;;;;36.88;26.33;94845.19;5071449;28;20213;-54
2022/08/01 10:51:21;;;;;;;0.50;0.50;;;;;;;36.42;26.76;94859.81;5071840;28;20558;-54
2022/08/01 10:54:11;;;;;;;0.60;0.53;;;;;;;36.38;27.93;94847.38;5071503;28;20186;-54
2022/08/01 10:56:43;;;;;;;0.80;0.80;;;;;;;35.16;27.25;94848.84;5070526;28;20187;-54
2022/08/01 10:59:16;;;;;;;0.70;0.70;;;;;;;35.50;27.81;94848.19;5071211;28;20719;-52
2022/08/01 11:02:06;;;;;;;0.73;0.73;;;;;;;36.19;26.88;94844.44;5071297;28;20210;-53
2022/08/01 11:04:43;;;;;;;0.70;0.70;;;;;;;36.27;26.42;94837.47;5070337;28;20186;-54
2022/08/01 11:07:19;;;;;;;0.60;0.60;;;;;;;35.11;26.82;94724.66;5071475;28;20228;-53
2022/08/01 11:10:10;;;;;;;0.80;0.80;;;;;;;36.31;25.77;94837.31;5071126;28;20178;-53
2022/08/01 11:12:44;;;;;;;1.23;0.40;;;;;;;36.27;28.49;94837.47;5071570;28;20269;-54
2022/08/01 11:15:25;;;;;;;0.60;0.60;;;;;;;36.44;27.44;94832.53;5070980;28;20229;-54
2022/08/01 11:18:00;;;;;;;0.50;0.50;;;;;;;37.05;24.11;94829.19;5071508;28;20226;-54
2022/08/01 11:20:31;;;;;;;0.60;0.60;;;;;;;36.68;25.02;94821.88;5071400;28;20225;-53
2022/08/01 11:23:28;;;;;;;0.50;0.50;;;;;;;35.69;25.49;94795.63;5071742;28;20194;-53
2022/08/01 11:26:22;;;;;;;0.70;0.70;;;;;;;34.23;27.29;94794.00;5071671;28;20280;-53
2022/08/01 11:29:18;;;;;;;0.50;0.50;;;;;;;35.09;26.98;94813.25;5071405;28;20183;-54
2022/08/01 11:31:49;;;;;;;0.80;0.80;;;;;;;35.09;25.26;94811.25;5071549;28;20202;-54
2022/08/01 11:34:19;;;;;;;0.50;0.47;;;;;;;35.27;26.19;94776.91;5071667;28;20189;-54
2022/08/01 11:36:48;;;;;;;1.40;0.60;;;;;;;35.15;25.20;94814.22;5071354;28;20651;-54
2022/08/01 11:39:28;;;;;;;0.87;0.60;;;;;;;35.78;26.31;94802.44;5071279;28;20191;-53
2022/08/01 11:42:20;;;;;;;0.70;0.63;;;;;;;35.85;24.22;94805.72;5071508;28;20253;-54
2022/08/01 11:44:51;;;;;;;0.40;0.40;;;;;;;36.11;26.01;94801.75;5071567;28;20214;-54
2022/08/01 11:47:39;;;;;;;1.03;1.03;;;;;;;34.77;25.49;94802.34;5071152;28;20576;-54
2022/08/01 11:50:32;;;;;;;0.40;0.40;;;;;;;35.42;26.18;94797.28;5070933;28;20194;-54
2022/08/01 11:53:01;;;;;;;0.50;0.50;;;;;;;36.50;25.30;94802.41;5071487;28;20270;-54